Time;durP1;ratioP1;P1;durP2;ratioP2;P2;SDS_P1;SDS_P2;PMS_P1;PMS_P2;Temp;Humidity;BMP_temperature;BMP_pressure;BME280_temperature;BME280_humidity;BME280_pressure;Samples;Min_cycle;Max_cycle;Signal;HPM_P1;HPM_P2
2022/07/14 00:00:40;;;;;;;9.77;2.17;;;14.40;99.90;;;;;;5090371;28;20071;-64
2022/07/14 00:03:06;;;;;;;8.88;2.17;;;14.40;99.90;;;;;;5090114;28;20048;-64
2022/07/14 00:05:31;;;;;;;9.38;2.50;;;14.40;99.90;;;;;;5090211;28;20107;-64
2022/07/14 00:07:57;;;;;;;8.25;1.63;;;14.40;99.90;;;;;;5090136;28;20051;-65
2022/07/14 00:10:23;;;;;;;7.05;2.30;;;14.40;99.90;;;;;;5089989;28;20075;-65
2022/07/14 00:12:49;;;;;;;12.30;2.03;;;14.40;99.90;;;;;;5090776;28;20096;-65
2022/07/14 00:15:14;;;;;;;8.88;2.25;;;14.40;99.90;;;;;;5086454;28;20044;-65
2022/07/14 00:17:40;;;;;;;10.50;1.92;;;14.40;99.90;;;;;;5089300;28;20044;-66
2022/07/14 00:20:06;;;;;;;8.13;1.60;;;14.30;99.90;;;;;;5089467;28;20035;-64
2022/07/14 00:22:32;;;;;;;10.23;2.28;;;14.30;99.90;;;;;;5089617;28;20070;-65
2022/07/14 00:24:57;;;;;;;7.05;2.13;;;14.30;99.90;;;;;;5090449;28;20049;-66
2022/07/14 00:27:23;;;;;;;6.07;1.67;;;14.30;99.90;;;;;;5089761;28;20390;-65
2022/07/14 00:29:49;;;;;;;9.30;2.10;;;14.30;99.90;;;;;;5090771;28;20043;-65
2022/07/14 00:32:15;;;;;;;6.07;1.88;;;14.20;99.90;;;;;;5090863;28;20047;-64
2022/07/14 00:34:41;;;;;;;6.30;1.75;;;14.20;99.90;;;;;;5089500;28;20094;-66
2022/07/14 00:37:06;;;;;;;8.25;2.13;;;14.20;99.90;;;;;;5089270;28;20044;-64
2022/07/14 00:39:54;;;;;;;8.57;2.08;;;14.20;99.90;;;;;;5089689;28;20514;-64
2022/07/14 00:42:32;;;;;;;5.63;1.58;;;14.10;99.90;;;;;;5089189;28;20406;-63
2022/07/14 00:44:59;;;;;;;5.57;1.50;;;14.10;99.90;;;;;;5089748;28;20488;-64
2022/07/14 00:47:25;;;;;;;8.98;1.88;;;14.00;99.90;;;;;;5091067;28;20505;-65
2022/07/14 00:49:52;;;;;;;5.63;2.20;;;14.00;99.90;;;;;;5090922;28;20553;-65
2022/07/14 00:52:18;;;;;;;8.65;2.25;;;13.90;99.90;;;;;;5089341;28;20081;-65
2022/07/14 00:54:44;;;;;;;7.00;2.30;;;13.90;99.90;;;;;;5086511;28;20040;-65
2022/07/14 00:57:10;;;;;;;9.70;2.10;;;13.90;99.90;;;;;;5089066;28;20050;-65
2022/07/14 00:59:36;;;;;;;6.35;1.70;;;13.80;99.90;;;;;;5089301;28;20126;-65
2022/07/14 01:02:02;;;;;;;6.65;2.05;;;13.70;99.90;;;;;;5085495;28;20542;-63
2022/07/14 01:04:27;;;;;;;6.15;1.90;;;13.70;99.90;;;;;;5089205;28;20047;-64
2022/07/14 01:06:53;;;;;;;8.35;2.10;;;13.60;99.90;;;;;;5090204;28;20090;-66
2022/07/14 01:09:18;;;;;;;7.93;1.88;;;13.60;99.90;;;;;;5088697;28;20095;-64
2022/07/14 01:11:44;;;;;;;8.48;2.25;;;13.60;99.90;;;;;;5088752;28;20052;-64
2022/07/14 01:14:10;;;;;;;8.20;1.90;;;13.60;99.90;;;;;;5090279;28;20078;-64
2022/07/14 01:16:35;;;;;;;6.82;1.70;;;13.50;99.90;;;;;;5089130;28;20040;-62
2022/07/14 01:19:01;;;;;;;9.02;1.92;;;13.50;99.90;;;;;;5089056;28;20044;-65
2022/07/14 01:21:26;;;;;;;9.75;2.33;;;13.40;99.90;;;;;;5089079;28;20066;-64
2022/07/14 01:23:52;;;;;;;10.73;2.53;;;13.40;99.90;;;;;;5090236;28;20497;-64
2022/07/14 01:26:18;;;;;;;7.47;2.38;;;13.40;99.90;;;;;;5091714;28;20126;-63
2022/07/14 01:28:43;;;;;;;6.45;2.42;;;13.40;99.90;;;;;;5093076;28;20044;-65
2022/07/14 01:31:09;;;;;;;8.73;1.90;;;13.40;99.90;;;;;;5094223;28;20464;-65
2022/07/14 01:33:35;;;;;;;7.18;2.20;;;13.30;99.90;;;;;;5093065;28;20055;-65
2022/07/14 01:36:01;;;;;;;5.75;1.77;;;13.30;99.90;;;;;;5092792;28;20410;-63
2022/07/14 01:38:26;;;;;;;5.53;1.80;;;13.30;99.90;;;;;;5092811;28;20086;-64
2022/07/14 01:40:52;;;;;;;7.00;2.15;;;13.30;99.90;;;;;;5094420;28;20431;-64
2022/07/14 01:43:17;;;;;;;5.30;1.58;;;13.20;99.90;;;;;;5092881;28;20040;-65
2022/07/14 01:45:43;;;;;;;5.05;1.58;;;13.20;99.90;;;;;;5092770;28;20119;-63
2022/07/14 01:48:09;;;;;;;8.05;1.90;;;13.20;99.90;;;;;;5092538;28;20127;-65
2022/07/14 01:50:34;;;;;;;8.45;2.05;;;13.10;99.90;;;;;;5094028;28;20035;-66
2022/07/14 01:53:00;;;;;;;5.07;1.55;;;13.10;99.90;;;;;;5093879;28;20055;-64
2022/07/14 01:55:25;;;;;;;5.82;1.85;;;13.10;99.90;;;;;;5092595;28;20044;-64
2022/07/14 01:57:51;;;;;;;6.45;1.45;;;13.10;99.90;;;;;;5092848;28;20079;-66
2022/07/14 02:00:17;;;;;;;4.00;1.48;;;13.00;99.90;;;;;;5092297;28;20082;-66
2022/07/14 02:02:43;;;;;;;4.82;1.50;;;13.00;99.90;;;;;;5092785;28;20464;-65
2022/07/14 02:05:09;;;;;;;4.18;1.15;;;13.00;99.90;;;;;;5092344;28;20040;-63
2022/07/14 02:07:35;;;;;;;5.82;1.50;;;12.90;99.90;;;;;;5074270;28;20040;-65
2022/07/14 02:12:45;;;;;;;7.07;1.92;;;12.90;99.90;;;;;;5093278;28;20093;-66
2022/07/14 02:15:10;;;;;;;4.10;1.40;;;12.90;99.90;;;;;;5091600;28;20043;-64
2022/07/14 02:17:37;;;;;;;5.97;1.80;;;12.80;99.90;;;;;;5091871;28;20040;-65
2022/07/14 02:20:04;;;;;;;3.40;1.40;;;12.80;99.90;;;;;;5091331;28;20040;-63
2022/07/14 02:22:29;;;;;;;4.75;1.73;;;12.80;99.90;;;;;;5092827;28;20070;-64
2022/07/14 02:24:55;;;;;;;4.38;1.60;;;12.80;99.90;;;;;;5092125;28;20090;-64
2022/07/14 02:27:21;;;;;;;5.85;1.60;;;12.70;99.90;;;;;;5093198;28;20040;-66
2022/07/14 02:29:47;;;;;;;3.45;1.38;;;12.70;99.90;;;;;;5093305;28;20121;-63
2022/07/14 02:32:12;;;;;;;5.45;1.50;;;12.70;99.90;;;;;;5093204;28;20036;-65
2022/07/14 02:34:38;;;;;;;4.57;1.67;;;12.70;99.90;;;;;;5091443;28;20051;-64
2022/07/14 02:37:04;;;;;;;6.75;2.45;;;12.70;99.90;;;;;;5092743;28;20044;-64
2022/07/14 02:39:29;;;;;;;7.20;1.55;;;12.60;99.90;;;;;;5091987;28;20055;-64
2022/07/14 02:41:55;;;;;;;4.45;1.48;;;12.60;99.90;;;;;;5091843;28;20039;-65
2022/07/14 02:44:21;;;;;;;3.83;1.15;;;12.60;99.90;;;;;;5091639;28;20040;-65
2022/07/14 02:46:47;;;;;;;2.80;1.20;;;12.50;99.90;;;;;;5091625;28;20230;-64
2022/07/14 02:49:13;;;;;;;2.88;1.10;;;12.50;99.90;;;;;;5091920;28;20089;-64
2022/07/14 02:51:38;;;;;;;4.32;1.52;;;12.50;99.90;;;;;;5091440;28;20044;-64
2022/07/14 02:54:04;;;;;;;6.13;1.50;;;12.40;99.90;;;;;;5091470;28;20040;-64
2022/07/14 02:56:30;;;;;;;2.70;1.05;;;12.40;99.90;;;;;;5091532;28;20044;-64
2022/07/14 02:58:56;;;;;;;3.40;1.17;;;12.40;99.90;;;;;;5092557;28;20044;-65
2022/07/14 03:01:21;;;;;;;7.22;1.70;;;12.40;99.90;;;;;;5092605;28;20040;-65
2022/07/14 03:03:47;;;;;;;3.53;1.60;;;12.30;99.90;;;;;;5092471;28;20631;-64
2022/07/14 03:06:18;;;;;;;2.70;1.10;;;12.30;99.90;;;;;;5091278;28;20094;-66
2022/07/14 03:08:44;;;;;;;2.85;0.70;;;12.20;99.90;;;;;;5091034;28;20044;-65
2022/07/14 03:11:10;;;;;;;1.73;0.47;;;12.20;99.90;;;;;;5091797;28;20432;-65
2022/07/14 03:13:36;;;;;;;1.98;0.80;;;12.20;99.90;;;;;;5090545;28;20051;-64
2022/07/14 03:16:03;;;;;;;0.90;0.50;;;12.10;99.90;;;;;;5091333;28;20040;-66
2022/07/14 03:18:28;;;;;;;0.60;0.50;;;12.10;99.90;;;;;;5090808;28;20075;-65
2022/07/14 03:20:54;;;;;;;0.98;0.50;;;12.00;99.90;;;;;;5090121;28;20466;-63
2022/07/14 03:23:21;;;;;;;0.98;0.50;;;12.00;99.90;;;;;;5090964;28;20052;-65
2022/07/14 03:25:47;;;;;;;1.05;0.50;;;12.00;99.90;;;;;;5090905;28;20044;-65
2022/07/14 03:28:13;;;;;;;2.22;0.88;;;11.90;99.90;;;;;;5092362;28;20039;-65
2022/07/14 03:30:39;;;;;;;4.30;1.10;;;11.90;99.90;;;;;;5124844;27;20083;-66
2022/07/14 03:33:05;;;;;;;2.50;1.35;;;11.90;99.90;;;;;;5091808;28;20039;-64
2022/07/14 03:35:31;;;;;;;2.85;1.20;;;11.80;99.90;;;;;;5092002;28;20073;-65
2022/07/14 03:37:57;;;;;;;4.70;1.48;;;11.80;99.90;;;;;;5090482;28;20391;-63
2022/07/14 03:40:22;;;;;;;2.40;1.48;;;11.80;99.90;;;;;;5091873;28;20024;-64
2022/07/14 03:42:48;;;;;;;4.88;1.52;;;11.80;99.90;;;;;;5090648;28;20051;-65
2022/07/14 03:45:14;;;;;;;3.53;1.45;;;11.80;99.90;;;;;;5090605;28;20042;-65
2022/07/14 03:47:42;;;;;;;4.35;1.50;;;11.80;99.90;;;;;;5089773;28;20039;-65
2022/07/14 03:50:09;;;;;;;5.25;1.60;;;11.80;99.90;;;;;;5091897;28;20070;-65
2022/07/14 03:52:35;;;;;;;5.25;1.70;;;11.80;99.90;;;;;;5090253;28;20040;-65
2022/07/14 03:55:00;;;;;;;3.55;1.75;;;11.80;99.90;;;;;;5091962;28;20043;-65
2022/07/14 03:57:26;;;;;;;3.67;1.50;;;11.80;99.90;;;;;;5087036;28;20494;-65
2022/07/14 03:59:52;;;;;;;3.72;1.25;;;11.90;99.90;;;;;;5123528;27;20075;-64
2022/07/14 04:02:17;;;;;;;3.03;1.20;;;11.90;99.90;;;;;;5091382;28;20081;-65
2022/07/14 04:04:43;;;;;;;3.20;1.30;;;11.90;99.90;;;;;;5089750;28;20044;-64
2022/07/14 04:07:09;;;;;;;2.58;1.10;;;11.90;99.90;;;;;;5089823;28;20036;-65
2022/07/14 04:09:34;;;;;;;1.63;0.80;;;12.00;99.90;;;;;;5124690;27;20039;-64
2022/07/14 04:12:00;;;;;;;2.63;0.80;;;12.00;99.90;;;;;;5089798;28;20101;-65
2022/07/14 04:14:26;;;;;;;1.95;1.10;;;12.00;99.90;;;;;;5072631;28;20083;-65
2022/07/14 04:16:52;;;;;;;3.20;0.93;;;12.00;99.90;;;;;;5090382;28;20532;-65
2022/07/14 04:19:18;;;;;;;2.83;1.05;;;12.00;99.90;;;;;;5089824;28;20447;-64
2022/07/14 04:21:44;;;;;;;2.95;1.25;;;12.00;99.90;;;;;;5090710;28;20118;-65
2022/07/14 04:24:09;;;;;;;2.30;1.15;;;12.10;99.90;;;;;;5090068;28;20151;-65
2022/07/14 04:26:40;;;;;;;3.33;0.90;;;12.10;99.90;;;;;;5090987;28;20066;-65
2022/07/14 04:29:06;;;;;;;1.40;0.80;;;12.10;99.90;;;;;;5089512;28;20044;-64
2022/07/14 04:31:32;;;;;;;2.55;0.77;;;12.20;99.90;;;;;;5089606;28;20039;-64
2022/07/14 04:33:58;;;;;;;3.65;0.88;;;12.20;99.90;;;;;;5090553;28;20043;-66
2022/07/14 04:36:24;;;;;;;1.20;0.73;;;12.30;99.90;;;;;;5089600;28;20122;-64
2022/07/14 04:38:50;;;;;;;5.43;1.50;;;12.40;99.90;;;;;;5089218;28;20395;-64
2022/07/14 04:41:15;;;;;;;2.28;1.10;;;12.40;99.90;;;;;;5091042;28;20028;-64
2022/07/14 04:43:41;;;;;;;1.65;0.90;;;12.50;99.90;;;;;;5089450;28;20068;-64
2022/07/14 04:46:08;;;;;;;2.88;1.33;;;12.50;99.90;;;;;;5088793;28;20044;-65
2022/07/14 04:52:01;;;;;;;2.00;1.20;;;12.60;99.90;;;;;;5090757;28;20043;-66
2022/07/14 04:54:04;;;;;;;1.40;1.27;;;12.70;99.90;;;;;;5089202;28;20062;-65
2022/07/14 04:56:29;;;;;;;4.15;1.35;;;12.80;99.90;;;;;;5090447;28;20492;-64
2022/07/14 04:58:55;;;;;;;3.75;1.60;;;12.90;99.90;;;;;;5089083;28;20089;-65
2022/07/14 05:01:20;;;;;;;2.17;1.50;;;13.00;99.90;;;;;;5090752;28;20040;-63
2022/07/14 05:03:46;;;;;;;4.00;1.90;;;13.10;99.90;;;;;;5085262;28;20047;-63
2022/07/14 05:06:12;;;;;;;4.68;2.00;;;13.20;99.90;;;;;;5089036;28;20039;-63
2022/07/14 05:08:37;;;;;;;4.47;2.30;;;13.30;99.90;;;;;;5089148;28;20486;-63
2022/07/14 05:11:04;;;;;;;4.57;2.05;;;13.40;99.90;;;;;;5088935;28;20093;-65
2022/07/14 05:13:30;;;;;;;8.10;3.20;;;13.50;99.90;;;;;;5089117;28;20134;-65
2022/07/14 05:15:56;;;;;;;11.98;3.35;;;13.60;99.90;;;;;;5090259;28;20036;-64
2022/07/14 05:18:21;;;;;;;6.00;2.42;;;13.80;99.90;;;;;;5089212;28;20028;-65
2022/07/14 05:20:47;;;;;;;7.55;3.00;;;13.70;99.90;;;;;;5089208;28;20039;-65
2022/07/14 05:23:13;;;;;;;8.88;2.58;;;13.80;99.90;;;;;;5088893;28;20448;-65
2022/07/14 05:25:39;;;;;;;8.57;3.42;;;13.90;99.90;;;;;;5089191;28;20042;-66
2022/07/14 05:28:05;;;;;;;6.68;2.30;;;14.10;99.90;;;;;;5071760;28;20055;-64
2022/07/14 05:30:31;;;;;;;4.45;2.20;;;14.30;99.90;;;;;;5088556;28;20055;-64
2022/07/14 05:32:57;;;;;;;6.85;2.35;;;14.40;99.90;;;;;;5088933;28;20047;-64
2022/07/14 05:35:23;;;;;;;5.20;2.70;;;14.40;99.90;;;;;;5088311;28;20123;-65
2022/07/14 05:37:49;;;;;;;6.18;2.13;;;14.60;99.90;;;;;;5089305;28;20123;-65
2022/07/14 05:40:14;;;;;;;8.05;2.28;;;14.80;99.90;;;;;;5087297;28;20047;-64
2022/07/14 05:42:41;;;;;;;8.95;2.67;;;14.90;99.90;;;;;;5069867;28;20117;-65
2022/07/14 05:45:07;;;;;;;10.05;3.00;;;15.00;99.90;;;;;;5087212;28;20040;-64
2022/07/14 05:47:32;;;;;;;9.45;2.90;;;15.10;99.90;;;;;;5084309;28;20055;-65
2022/07/14 05:49:59;;;;;;;5.93;2.40;;;15.10;99.90;;;;;;5122148;27;20036;-66
2022/07/14 05:52:25;;;;;;;6.07;2.72;;;15.20;99.90;;;;;;5087911;28;20040;-64
2022/07/14 05:54:50;;;;;;;7.07;2.28;;;15.30;99.90;;;;;;5089470;28;20134;-64
2022/07/14 05:57:16;;;;;;;7.95;2.70;;;15.40;99.90;;;;;;5089358;28;20104;-64
2022/07/14 05:59:41;;;;;;;8.38;2.30;;;15.50;99.90;;;;;;5086060;28;20403;-64
2022/07/14 06:02:07;;;;;;;7.00;2.40;;;15.70;99.90;;;;;;5118026;28;20060;-65
2022/07/14 06:04:32;;;;;;;5.28;2.35;;;15.90;99.90;;;;;;5088139;28;20036;-64
2022/07/14 06:06:58;;;;;;;8.60;2.25;;;16.10;99.90;;;;;;5088766;28;20043;-65
2022/07/14 06:09:24;;;;;;;6.60;2.00;;;16.10;99.90;;;;;;5089775;28;20042;-64
2022/07/14 06:11:49;;;;;;;6.30;2.20;;;16.20;99.90;;;;;;5086841;28;20138;-65
2022/07/14 06:14:15;;;;;;;8.65;2.22;;;16.20;99.90;;;;;;5091337;28;20502;-65
2022/07/14 06:16:41;;;;;;;9.98;2.20;;;16.30;99.90;;;;;;5072778;28;20056;-64
2022/07/14 06:19:07;;;;;;;8.45;2.70;;;16.30;99.90;;;;;;5075220;28;20040;-66
2022/07/14 06:21:33;;;;;;;9.13;2.38;;;16.30;99.90;;;;;;5093909;28;20406;-65
2022/07/14 06:23:58;;;;;;;8.35;2.20;;;16.30;99.90;;;;;;5091241;28;20051;-66
2022/07/14 06:26:24;;;;;;;9.18;2.30;;;16.40;99.90;;;;;;5123614;27;20185;-65
2022/07/14 06:28:50;;;;;;;9.65;2.50;;;16.40;99.90;;;;;;5091967;28;20048;-66
2022/07/14 06:31:15;;;;;;;10.07;2.58;;;16.50;99.90;;;;;;5089147;28;20483;-65
2022/07/14 06:33:41;;;;;;;9.40;2.03;;;16.50;99.90;;;;;;5092394;28;20086;-65
2022/07/14 06:36:08;;;;;;;7.93;2.40;;;16.60;99.90;;;;;;5125724;27;20074;-64
2022/07/14 06:38:34;;;;;;;7.75;2.50;;;16.70;99.90;;;;;;5090233;28;20044;-65
2022/07/14 06:41:00;;;;;;;11.98;2.15;;;16.90;99.90;;;;;;5090728;28;20079;-66
2022/07/14 06:43:26;;;;;;;7.20;2.00;;;16.90;99.90;;;;;;5092779;28;20082;-64
2022/07/14 06:45:52;;;;;;;6.35;2.15;;;16.80;99.90;;;;;;5090279;28;20036;-64
2022/07/14 06:48:18;;;;;;;8.32;1.63;;;17.10;99.90;;;;;;5091569;28;20449;-65
2022/07/14 06:50:44;;;;;;;8.73;1.48;;;17.30;99.90;;;;;;5123317;27;20048;-65
2022/07/14 06:53:10;;;;;;;5.72;1.85;;;17.60;99.90;;;;;;5087979;28;20129;-64
2022/07/14 06:55:35;;;;;;;9.10;1.83;;;17.90;99.90;;;;;;5089320;28;20072;-65
2022/07/14 06:58:01;;;;;;;5.35;1.50;;;18.10;99.90;;;;;;5089371;28;20056;-64
2022/07/14 07:00:27;;;;;;;5.15;1.50;;;18.10;99.90;;;;;;5087805;28;20078;-65
2022/07/14 07:02:53;;;;;;;5.68;1.02;;;18.30;99.90;;;;;;5090707;28;20089;-64
2022/07/14 07:08:03;;;;;;;7.78;1.50;;;18.20;99.90;;;;;;5086073;28;20074;-65
2022/07/14 07:10:29;;;;;;;4.93;1.00;;;18.40;99.90;;;;;;5089514;28;20390;-64
2022/07/14 07:12:55;;;;;;;5.25;1.52;;;18.40;99.90;;;;;;5088198;28;20118;-64
2022/07/14 07:15:21;;;;;;;7.18;1.95;;;18.40;99.90;;;;;;5090808;28;20155;-65
2022/07/14 07:17:48;;;;;;;5.78;1.13;;;18.50;99.90;;;;;;5072567;28;20047;-63
2022/07/14 07:20:14;;;;;;;10.70;1.23;;;18.50;99.90;;;;;;5123431;27;20040;-63
2022/07/14 07:22:40;;;;;;;4.88;1.00;;;18.20;99.90;;;;;;5086448;28;20422;-63
2022/07/14 07:25:06;;;;;;;7.68;1.65;;;18.30;99.90;;;;;;5085847;28;20493;-65
2022/07/14 07:27:32;;;;;;;7.25;1.10;;;18.30;99.90;;;;;;5119110;27;20414;-64
2022/07/14 07:30:00;;;;;;;5.57;1.05;;;18.50;99.90;;;;;;5087603;28;20075;-65
2022/07/14 07:32:26;;;;;;;6.40;0.90;;;18.60;99.90;;;;;;5089941;28;20043;-64
2022/07/14 07:34:51;;;;;;;5.13;1.30;;;18.60;99.90;;;;;;5086394;28;20063;-64
2022/07/14 07:37:17;;;;;;;7.47;1.30;;;18.40;99.90;;;;;;5082759;28;20043;-65
2022/07/14 07:39:43;;;;;;;4.75;1.05;;;18.50;99.90;;;;;;5088616;28;20063;-64
2022/07/14 07:42:09;;;;;;;5.65;0.90;;;18.60;99.90;;;;;;5087083;28;20418;-64
2022/07/14 07:44:36;;;;;;;6.00;1.00;;;18.70;99.90;;;;;;5116251;27;20037;-64
2022/07/14 07:47:02;;;;;;;7.30;1.40;;;18.90;99.90;;;;;;5070498;28;20083;-64
2022/07/14 07:49:28;;;;;;;5.57;1.52;;;19.10;99.90;;;;;;5088050;28;20047;-65
2022/07/14 07:52:01;;;;;;;4.75;0.93;;;19.10;99.90;;;;;;5089681;28;20285;-64
2022/07/14 07:54:27;;;;;;;4.72;1.40;;;19.00;99.90;;;;;;5089485;28;20038;-64
2022/07/14 07:56:54;;;;;;;5.18;0.95;;;19.30;99.90;;;;;;5088164;28;20047;-64
2022/07/14 07:59:20;;;;;;;4.75;0.90;;;19.60;99.90;;;;;;5089914;28;20048;-65
2022/07/14 08:01:46;;;;;;;3.40;1.00;;;19.80;99.90;;;;;;5123632;27;20483;-65
2022/07/14 08:04:14;;;;;;;3.80;0.98;;;20.10;99.90;;;;;;5089244;28;20032;-64
2022/07/14 08:06:40;;;;;;;5.15;0.90;;;19.90;99.90;;;;;;5071588;28;20044;-65
2022/07/14 08:09:10;;;;;;;3.92;0.73;;;19.80;99.90;;;;;;5088164;28;20032;-64
2022/07/14 08:11:36;;;;;;;3.35;0.80;;;19.60;99.90;;;;;;5089721;28;20039;-65
2022/07/14 08:14:01;;;;;;;4.28;0.70;;;19.40;99.90;;;;;;5121135;27;20074;-65
2022/07/14 08:16:27;;;;;;;2.92;0.65;;;19.60;99.90;;;;;;5083718;28;20036;-64
2022/07/14 08:18:53;;;;;;;5.55;0.90;;;20.00;99.90;;;;;;5119931;27;20036;-65
2022/07/14 08:21:18;;;;;;;5.40;1.27;;;20.30;99.90;;;;;;5087017;28;20416;-64
2022/07/14 08:23:44;;;;;;;3.65;0.70;;;20.50;99.90;;;;;;5089598;28;20491;-65
2022/07/14 08:26:10;;;;;;;4.28;0.80;;;20.60;99.90;;;;;;5089249;28;20278;-64
2022/07/14 08:28:36;;;;;;;3.85;0.70;;;20.80;99.90;;;;;;5088355;28;20418;-66
2022/07/14 08:31:02;;;;;;;4.65;0.70;;;21.00;99.90;;;;;;5088604;28;20040;-64
2022/07/14 08:33:27;;;;;;;2.85;0.60;;;21.10;99.90;;;;;;5089641;28;20048;-65
2022/07/14 08:35:53;;;;;;;6.22;1.30;;;21.20;99.90;;;;;;5088938;28;20036;-63
2022/07/14 08:38:19;;;;;;;3.22;0.90;;;21.30;99.90;;;;;;5085923;28;20068;-66
2022/07/14 08:40:44;;;;;;;4.38;1.10;;;21.20;99.90;;;;;;5123845;27;20042;-64
2022/07/14 08:43:11;;;;;;;3.95;0.70;;;21.30;99.90;;;;;;5086476;28;20051;-64
2022/07/14 08:45:41;;;;;;;3.40;1.00;;;21.10;99.90;;;;;;5089576;28;20121;-66
2022/07/14 08:48:09;;;;;;;4.18;0.70;;;21.00;99.90;;;;;;5089096;28;20032;-65
2022/07/14 08:50:35;;;;;;;2.75;0.70;;;21.30;99.90;;;;;;5090701;28;20074;-65
2022/07/14 08:53:04;;;;;;;4.25;0.70;;;21.40;99.90;;;;;;5086485;28;20131;-65
2022/07/14 08:55:30;;;;;;;2.67;0.55;;;21.40;99.90;;;;;;5122466;27;20040;-64
2022/07/14 08:57:56;;;;;;;3.45;0.85;;;21.40;99.90;;;;;;5087643;28;20048;-65
2022/07/14 09:00:22;;;;;;;1.83;0.70;;;21.20;99.90;;;;;;5089306;28;20036;-65
2022/07/14 09:02:52;;;;;;;3.70;0.70;;;21.40;99.90;;;;;;5088610;28;20165;-66
2022/07/14 09:05:18;;;;;;;2.20;0.60;;;21.50;99.90;;;;;;5079169;28;20155;-64
2022/07/14 09:07:44;;;;;;;2.50;0.88;;;21.50;99.80;;;;;;5086286;28;20516;-65
2022/07/14 09:10:13;;;;;;;2.40;0.75;;;21.70;99.60;;;;;;5080237;28;20119;-64
2022/07/14 09:12:41;;;;;;;2.78;0.55;;;21.60;99.20;;;;;;5080160;28;20040;-66
2022/07/14 09:17:55;;;;;;;1.23;0.50;;;21.70;98.70;;;;;;5083900;28;20114;-63
2022/07/14 09:20:23;;;;;;;4.20;0.60;;;21.90;99.30;;;;;;5088374;28;20071;-64
2022/07/14 09:22:55;;;;;;;3.58;0.60;;;22.00;99.50;;;;;;5071525;28;20036;-64
2022/07/14 09:25:21;;;;;;;6.13;0.75;;;22.20;99.90;;;;;;5086296;28;20636;-65
2022/07/14 09:27:48;;;;;;;4.00;0.80;;;22.20;99.50;;;;;;5088892;28;21424;-65
2022/07/14 09:30:14;;;;;;;4.40;0.50;;;22.10;99.50;;;;;;5070812;28;20047;-65
2022/07/14 09:32:59;;;;;;;2.40;0.50;;;22.00;99.00;;;;;;5084432;28;20334;-64
2022/07/14 09:35:36;;;;;;;4.70;0.70;;;22.00;99.20;;;;;;5087342;28;20533;-63
2022/07/14 09:38:20;;;;;;;1.90;0.50;;;21.90;99.50;;;;;;5088607;28;20040;-65
2022/07/14 09:40:47;;;;;;;6.00;0.70;;;21.70;99.00;;;;;;5087642;28;20044;-63
2022/07/14 09:43:16;;;;;;;4.28;0.70;;;21.60;99.40;;;;;;5087666;28;20028;-64
2022/07/14 09:45:49;;;;;;;1.55;0.60;;;21.40;99.00;;;;;;5088060;28;20032;-66
2022/07/14 09:48:21;;;;;;;2.63;0.80;;;21.30;98.90;;;;;;5091320;28;20042;-64
2022/07/14 09:50:48;;;;;;;2.20;0.57;;;21.10;98.90;;;;;;5091702;28;20052;-65
2022/07/14 09:53:30;;;;;;;2.30;0.60;;;21.20;99.40;;;;;;5091746;28;20068;-66
2022/07/14 09:56:03;;;;;;;4.50;0.82;;;21.20;99.40;;;;;;5091739;28;20125;-65
2022/07/14 09:58:45;;;;;;;3.42;0.80;;;21.10;99.10;;;;;;5093290;28;20036;-64
2022/07/14 10:01:14;;;;;;;3.42;1.08;;;21.10;98.90;;;;;;5123497;27;20032;-65
2022/07/14 10:03:44;;;;;;;1.30;0.40;;;21.00;98.90;;;;;;5092709;28;20024;-64
2022/07/14 10:06:11;;;;;;;2.60;0.47;;;21.10;99.00;;;;;;5089292;28;20048;-65
2022/07/14 10:08:43;;;;;;;1.20;0.50;;;21.00;99.60;;;;;;5091443;28;20047;-65
2022/07/14 10:11:10;;;;;;;3.15;0.60;;;21.00;99.20;;;;;;5087276;28;20046;-65
2022/07/14 10:13:36;;;;;;;1.58;0.50;;;21.00;99.40;;;;;;5073879;28;20073;-65
2022/07/14 10:16:03;;;;;;;3.15;0.57;;;20.90;99.30;;;;;;5091543;28;20589;-64
2022/07/14 10:18:28;;;;;;;1.77;0.82;;;20.90;99.90;;;;;;5091447;28;20128;-65
2022/07/14 10:20:58;;;;;;;2.55;0.68;;;20.90;99.90;;;;;;5091187;28;20114;-64
2022/07/14 10:23:25;;;;;;;4.40;0.88;;;20.80;99.80;;;;;;5088338;28;20044;-65
2022/07/14 10:25:54;;;;;;;3.40;0.95;;;20.80;99.80;;;;;;5091123;28;20055;-63
2022/07/14 10:28:20;;;;;;;1.48;0.43;;;20.70;99.90;;;;;;5091428;28;20139;-65
2022/07/14 10:31:01;;;;;;;2.95;0.82;;;20.70;99.70;;;;;;5093348;28;20090;-65
2022/07/14 10:33:47;;;;;;;1.92;0.55;;;20.70;99.90;;;;;;5090465;28;20051;-64
2022/07/14 10:36:33;;;;;;;3.45;0.68;;;20.70;99.90;;;;;;5119307;27;20048;-64
2022/07/14 10:39:11;;;;;;;1.33;0.47;;;20.70;99.70;;;;;;5089360;28;20520;-65
2022/07/14 10:41:49;;;;;;;2.55;0.43;;;20.70;99.70;;;;;;5091061;28;20115;-65
2022/07/14 10:44:21;;;;;;;1.77;0.50;;;20.60;99.50;;;;;;5091794;28;20101;-64
2022/07/14 10:46:50;;;;;;;3.53;0.50;;;20.60;99.80;;;;;;5090878;28;20147;-66
2022/07/14 10:49:17;;;;;;;3.28;0.60;;;20.60;99.90;;;;;;5123607;27;20052;-64
2022/07/14 10:51:49;;;;;;;2.38;0.77;;;20.70;99.90;;;;;;5107626;27;20108;-65
2022/07/14 10:54:22;;;;;;;4.63;0.73;;;20.70;99.50;;;;;;5095204;28;20074;-65
2022/07/14 10:56:48;;;;;;;2.42;0.60;;;20.70;99.90;;;;;;5092353;28;20043;-65
2022/07/14 10:59:26;;;;;;;2.53;0.43;;;20.50;99.80;;;;;;5091169;28;20032;-66
2022/07/14 11:02:28;;;;;;;3.05;0.50;;;20.60;99.90;;;;;;5089855;28;20494;-65
2022/07/14 11:05:12;;;;;;;4.38;0.50;;;20.50;99.90;;;;;;5009380;28;20581;-64
2022/07/14 11:07:48;;;;;;;3.50;0.80;;;20.40;99.90;;;;;;5025912;28;20048;-64
2022/07/14 11:10:19;;;;;;;6.03;0.50;;;20.30;99.90;;;;;;5025251;28;20042;-64
2022/07/14 11:13:02;;;;;;;2.35;0.90;;;20.30;99.90;;;;;;5011464;28;20045;-63
2022/07/14 11:15:50;;;;;;;2.47;0.63;;;20.20;99.90;;;;;;5012376;28;20052;-65
2022/07/14 11:18:18;;;;;;;2.08;0.60;;;20.10;99.90;;;;;;5012182;28;20053;-63
2022/07/14 11:20:55;;;;;;;3.85;0.98;;;20.00;99.90;;;;;;5028673;28;20557;-65
2022/07/14 11:23:25;;;;;;;2.00;0.50;;;20.00;99.90;;;;;;5029221;28;20068;-65
2022/07/14 11:25:52;;;;;;;3.53;0.55;;;20.00;99.90;;;;;;5029161;28;20049;-65
2022/07/14 11:28:40;;;;;;;3.47;0.68;;;20.00;99.90;;;;;;5028780;28;20116;-64
2022/07/14 11:31:10;;;;;;;4.20;1.48;;;20.10;99.90;;;;;;5022264;28;20053;-63
2022/07/14 11:33:36;;;;;;;5.93;0.93;;;20.10;99.90;;;;;;5008865;28;20481;-65
2022/07/14 11:36:18;;;;;;;3.30;0.60;;;20.10;99.90;;;;;;5012248;28;20049;-64
2022/07/14 11:38:44;;;;;;;2.15;0.60;;;20.20;99.90;;;;;;5054637;28;20044;-65
2022/07/14 11:41:14;;;;;;;3.10;0.63;;;20.30;99.90;;;;;;5089380;28;20134;-66
2022/07/14 11:43:50;;;;;;;2.70;0.50;;;20.30;99.90;;;;;;5088698;28;20043;-65
2022/07/14 11:46:20;;;;;;;2.80;0.45;;;20.30;99.90;;;;;;5072031;28;20051;-65
2022/07/14 11:48:50;;;;;;;4.03;0.60;;;20.30;99.90;;;;;;5090088;28;20044;-66
2022/07/14 11:51:23;;;;;;;4.00;0.60;;;20.40;99.90;;;;;;5090079;28;20046;-65
2022/07/14 11:54:04;;;;;;;1.70;0.50;;;20.50;99.90;;;;;;5088254;28;20044;-65
2022/07/14 11:56:30;;;;;;;3.33;0.65;;;20.40;99.90;;;;;;5090001;28;20032;-65
2022/07/14 11:59:03;;;;;;;3.60;0.88;;;20.40;99.90;;;;;;5088242;28;20119;-66
2022/07/14 12:01:38;;;;;;;4.78;0.82;;;20.50;99.90;;;;;;5089737;28;20032;-65
2022/07/14 12:04:14;;;;;;;2.08;0.50;;;20.80;99.90;;;;;;5087959;28;20533;-64
2022/07/14 12:06:44;;;;;;;3.03;0.80;;;21.10;99.90;;;;;;5087667;28;20390;-64
2022/07/14 12:09:10;;;;;;;2.97;0.55;;;21.30;99.90;;;;;;5088462;28;20046;-64
2022/07/14 12:11:36;;;;;;;3.42;0.80;;;21.60;99.90;;;;;;5089096;28;20437;-65
2022/07/14 12:14:03;;;;;;;3.95;1.10;;;21.70;99.90;;;;;;5089920;28;20051;-65
2022/07/14 12:16:41;;;;;;;3.22;0.60;;;21.60;99.90;;;;;;5088353;28;20368;-65
2022/07/14 12:19:07;;;;;;;2.50;0.68;;;21.40;99.00;;;;;;5089115;28;20472;-66
2022/07/14 12:21:34;;;;;;;2.30;0.55;;;21.30;98.90;;;;;;5089665;28;20028;-64
2022/07/14 12:24:01;;;;;;;2.47;0.65;;;21.20;98.70;;;;;;5090127;28;20300;-65
2022/07/14 12:26:27;;;;;;;4.25;0.68;;;21.20;98.20;;;;;;5089211;28;20137;-64
2022/07/14 12:28:58;;;;;;;1.02;0.40;;;21.10;98.80;;;;;;5089027;28;20379;-64
2022/07/14 12:31:24;;;;;;;2.13;0.70;;;21.00;99.20;;;;;;5088915;28;20036;-64
2022/07/14 12:33:52;;;;;;;0.93;0.40;;;21.10;99.80;;;;;;5088820;28;20527;-65
2022/07/14 12:36:20;;;;;;;2.75;0.73;;;21.00;99.60;;;;;;5087637;28;20771;-65
2022/07/14 12:38:47;;;;;;;2.38;0.50;;;21.10;99.90;;;;;;5089273;28;20040;-63
2022/07/14 12:41:15;;;;;;;2.47;0.70;;;21.20;99.80;;;;;;5088492;28;20148;-66
2022/07/14 12:43:43;;;;;;;2.67;0.60;;;21.10;99.20;;;;;;5089350;28;20047;-65
2022/07/14 12:46:14;;;;;;;1.90;0.60;;;21.20;99.50;;;;;;5088486;28;20044;-64
2022/07/14 12:48:49;;;;;;;3.17;0.80;;;21.40;99.90;;;;;;5089795;28;20040;-65
2022/07/14 12:51:19;;;;;;;3.33;0.60;;;21.70;99.90;;;;;;5121988;27;20803;-65
2022/07/14 12:54:04;;;;;;;2.63;0.60;;;21.70;98.40;;;;;;5088722;28;20509;-64
2022/07/14 12:56:45;;;;;;;2.08;0.65;;;21.70;98.50;;;;;;5087794;28;20056;-64
2022/07/14 12:59:17;;;;;;;3.45;0.73;;;21.80;98.60;;;;;;5089599;28;20086;-65